sensor_id;sensor_type;location;lat;lon;timestamp;P1;durP1;ratioP1;P2;durP2;ratioP2
59239;SDS011;45010;53.640;10.578;2023-06-10T00:02:33;3.38;;;2.08;;
59239;SDS011;45010;53.640;10.578;2023-06-10T00:05:34;3.97;;;1.75;;
59239;SDS011;45010;53.640;10.578;2023-06-10T00:08:35;4.50;;;1.90;;
59239;SDS011;45010;53.640;10.578;2023-06-10T00:11:37;3.15;;;2.20;;
59239;SDS011;45010;53.640;10.578;2023-06-10T00:14:38;2.15;;;1.83;;
59239;SDS011;45010;53.640;10.578;2023-06-10T00:17:40;7.07;;;2.10;;
59239;SDS011;45010;53.640;10.578;2023-06-10T00:20:41;3.63;;;1.90;;
59239;SDS011;45010;53.640;10.578;2023-06-10T00:23:42;2.63;;;1.70;;
59239;SDS011;45010;53.640;10.578;2023-06-10T00:26:43;3.72;;;1.60;;
59239;SDS011;45010;53.640;10.578;2023-06-10T00:29:44;2.70;;;1.63;;
59239;SDS011;45010;53.640;10.578;2023-06-10T00:32:44;5.13;;;1.90;;
59239;SDS011;45010;53.640;10.578;2023-06-10T00:35:45;3.45;;;1.77;;
59239;SDS011;45010;53.640;10.578;2023-06-10T00:38:45;3.15;;;1.98;;
59239;SDS011;45010;53.640;10.578;2023-06-10T00:41:46;4.78;;;2.20;;
59239;SDS011;45010;53.640;10.578;2023-06-10T00:44:46;2.33;;;1.75;;
59239;SDS011;45010;53.640;10.578;2023-06-10T00:47:46;2.28;;;1.77;;
59239;SDS011;45010;53.640;10.578;2023-06-10T00:50:47;3.13;;;1.73;;
59239;SDS011;45010;53.640;10.578;2023-06-10T00:53:48;2.85;;;1.58;;
59239;SDS011;45010;53.640;10.578;2023-06-10T00:56:49;2.53;;;1.80;;
59239;SDS011;45010;53.640;10.578;2023-06-10T00:59:51;2.38;;;1.60;;
59239;SDS011;45010;53.640;10.578;2023-06-10T01:02:51;3.10;;;1.40;;
59239;SDS011;45010;53.640;10.578;2023-06-10T01:06:03;3.05;;;1.58;;
59239;SDS011;45010;53.640;10.578;2023-06-10T01:09:18;3.88;;;1.83;;
59239;SDS011;45010;53.640;10.578;2023-06-10T01:12:44;2.63;;;1.45;;
59239;SDS011;45010;53.640;10.578;2023-06-10T01:15:50;3.47;;;1.70;;
59239;SDS011;45010;53.640;10.578;2023-06-10T01:18:51;2.25;;;1.50;;
59239;SDS011;45010;53.640;10.578;2023-06-10T01:21:52;2.05;;;1.30;;
59239;SDS011;45010;53.640;10.578;2023-06-10T01:24:55;2.63;;;1.42;;
59239;SDS011;45010;53.640;10.578;2023-06-10T01:28:02;2.95;;;1.67;;
59239;SDS011;45010;53.640;10.578;2023-06-10T01:31:28;2.30;;;1.67;;
59239;SDS011;45010;53.640;10.578;2023-06-10T01:34:37;2.78;;;1.83;;
59239;SDS011;45010;53.640;10.578;2023-06-10T01:37:43;3.33;;;1.90;;
59239;SDS011;45010;53.640;10.578;2023-06-10T01:40:46;2.03;;;1.60;;
59239;SDS011;45010;53.640;10.578;2023-06-10T01:43:48;2.60;;;1.52;;
59239;SDS011;45010;53.640;10.578;2023-06-10T01:46:48;1.83;;;1.52;;
59239;SDS011;45010;53.640;10.578;2023-06-10T01:49:49;2.47;;;1.60;;
59239;SDS011;45010;53.640;10.578;2023-06-10T01:52:49;3.42;;;1.55;;
59239;SDS011;45010;53.640;10.578;2023-06-10T01:55:49;2.15;;;1.45;;
59239;SDS011;45010;53.640;10.578;2023-06-10T01:58:50;2.85;;;1.63;;
59239;SDS011;45010;53.640;10.578;2023-06-10T02:01:51;2.67;;;1.55;;
59239;SDS011;45010;53.640;10.578;2023-06-10T02:04:51;1.85;;;1.30;;
59239;SDS011;45010;53.640;10.578;2023-06-10T02:07:51;2.03;;;1.33;;
59239;SDS011;45010;53.640;10.578;2023-06-10T02:10:52;1.98;;;1.67;;
59239;SDS011;45010;53.640;10.578;2023-06-10T02:13:52;2.97;;;1.58;;
59239;SDS011;45010;53.640;10.578;2023-06-10T02:16:52;2.10;;;1.30;;
59239;SDS011;45010;53.640;10.578;2023-06-10T02:19:56;1.58;;;1.48;;
59239;SDS011;45010;53.640;10.578;2023-06-10T02:22:57;2.08;;;1.35;;
59239;SDS011;45010;53.640;10.578;2023-06-10T02:25:58;1.70;;;1.30;;
59239;SDS011;45010;53.640;10.578;2023-06-10T02:28:58;3.75;;;1.42;;
59239;SDS011;45010;53.640;10.578;2023-06-10T02:31:58;1.98;;;1.27;;
59239;SDS011;45010;53.640;10.578;2023-06-10T02:34:59;2.17;;;1.52;;
59239;SDS011;45010;53.640;10.578;2023-06-10T02:38:00;1.65;;;1.08;;
59239;SDS011;45010;53.640;10.578;2023-06-10T02:41:00;2.60;;;1.50;;
59239;SDS011;45010;53.640;10.578;2023-06-10T02:44:00;2.05;;;1.38;;
59239;SDS011;45010;53.640;10.578;2023-06-10T02:47:01;2.47;;;1.55;;
59239;SDS011;45010;53.640;10.578;2023-06-10T02:50:01;1.85;;;1.35;;
59239;SDS011;45010;53.640;10.578;2023-06-10T02:53:03;2.70;;;1.70;;
59239;SDS011;45010;53.640;10.578;2023-06-10T02:56:04;1.77;;;1.48;;
59239;SDS011;45010;53.640;10.578;2023-06-10T02:59:04;1.55;;;1.20;;
59239;SDS011;45010;53.640;10.578;2023-06-10T03:02:07;1.90;;;1.10;;
59239;SDS011;45010;53.640;10.578;2023-06-10T03:05:07;2.83;;;1.50;;
59239;SDS011;45010;53.640;10.578;2023-06-10T03:08:11;1.95;;;1.23;;
59239;SDS011;45010;53.640;10.578;2023-06-10T03:11:11;1.88;;;1.40;;
59239;SDS011;45010;53.640;10.578;2023-06-10T03:14:11;2.05;;;1.20;;
59239;SDS011;45010;53.640;10.578;2023-06-10T03:17:12;1.75;;;1.55;;
59239;SDS011;45010;53.640;10.578;2023-06-10T03:20:12;2.83;;;1.35;;
59239;SDS011;45010;53.640;10.578;2023-06-10T03:23:15;2.90;;;1.50;;
59239;SDS011;45010;53.640;10.578;2023-06-10T03:26:16;2.67;;;1.65;;
59239;SDS011;45010;53.640;10.578;2023-06-10T03:29:16;2.85;;;1.45;;
59239;SDS011;45010;53.640;10.578;2023-06-10T03:32:16;3.72;;;1.52;;
59239;SDS011;45010;53.640;10.578;2023-06-10T03:35:17;2.50;;;1.50;;
59239;SDS011;45010;53.640;10.578;2023-06-10T03:38:17;1.20;;;1.10;;
59239;SDS011;45010;53.640;10.578;2023-06-10T03:41:18;1.88;;;1.30;;
59239;SDS011;45010;53.640;10.578;2023-06-10T03:44:18;2.35;;;1.15;;
59239;SDS011;45010;53.640;10.578;2023-06-10T03:47:18;2.10;;;1.20;;
59239;SDS011;45010;53.640;10.578;2023-06-10T03:50:19;2.17;;;1.25;;
59239;SDS011;45010;53.640;10.578;2023-06-10T03:53:19;2.03;;;1.48;;
59239;SDS011;45010;53.640;10.578;2023-06-10T03:56:20;1.80;;;1.25;;
59239;SDS011;45010;53.640;10.578;2023-06-10T03:59:20;2.10;;;1.35;;
59239;SDS011;45010;53.640;10.578;2023-06-10T04:02:20;2.20;;;1.15;;
59239;SDS011;45010;53.640;10.578;2023-06-10T04:05:21;2.75;;;1.50;;
59239;SDS011;45010;53.640;10.578;2023-06-10T04:08:21;2.85;;;1.30;;
59239;SDS011;45010;53.640;10.578;2023-06-10T04:11:23;2.10;;;1.30;;
59239;SDS011;45010;53.640;10.578;2023-06-10T04:14:24;1.92;;;1.13;;
59239;SDS011;45010;53.640;10.578;2023-06-10T04:17:24;2.15;;;1.10;;
59239;SDS011;45010;53.640;10.578;2023-06-10T04:20:24;1.58;;;1.35;;
59239;SDS011;45010;53.640;10.578;2023-06-10T04:23:25;2.15;;;1.40;;
59239;SDS011;45010;53.640;10.578;2023-06-10T04:26:26;2.08;;;1.40;;
59239;SDS011;45010;53.640;10.578;2023-06-10T04:29:27;1.48;;;0.90;;
59239;SDS011;45010;53.640;10.578;2023-06-10T04:32:28;2.95;;;1.40;;
59239;SDS011;45010;53.640;10.578;2023-06-10T04:35:28;1.55;;;1.05;;
59239;SDS011;45010;53.640;10.578;2023-06-10T04:38:28;1.55;;;1.10;;
59239;SDS011;45010;53.640;10.578;2023-06-10T04:41:30;2.20;;;1.38;;
59239;SDS011;45010;53.640;10.578;2023-06-10T04:44:31;1.38;;;1.10;;
59239;SDS011;45010;53.640;10.578;2023-06-10T04:47:31;1.70;;;1.08;;
59239;SDS011;45010;53.640;10.578;2023-06-10T04:50:33;1.20;;;1.00;;
59239;SDS011;45010;53.640;10.578;2023-06-10T04:53:33;2.25;;;1.25;;
59239;SDS011;45010;53.640;10.578;2023-06-10T04:56:33;2.03;;;1.20;;
59239;SDS011;45010;53.640;10.578;2023-06-10T04:59:34;1.42;;;1.08;;
59239;SDS011;45010;53.640;10.578;2023-06-10T05:02:37;1.17;;;0.90;;
59239;SDS011;45010;53.640;10.578;2023-06-10T05:05:37;2.08;;;1.00;;
59239;SDS011;45010;53.640;10.578;2023-06-10T05:08:38;1.92;;;1.15;;
59239;SDS011;45010;53.640;10.578;2023-06-10T05:11:38;2.00;;;1.30;;
59239;SDS011;45010;53.640;10.578;2023-06-10T05:14:38;1.52;;;1.02;;
59239;SDS011;45010;53.640;10.578;2023-06-10T05:17:39;2.53;;;1.42;;
59239;SDS011;45010;53.640;10.578;2023-06-10T05:20:39;1.75;;;1.05;;
59239;SDS011;45010;53.640;10.578;2023-06-10T05:23:39;1.20;;;1.10;;
59239;SDS011;45010;53.640;10.578;2023-06-10T05:26:40;2.78;;;1.23;;
59239;SDS011;45010;53.640;10.578;2023-06-10T05:29:41;1.58;;;1.10;;
59239;SDS011;45010;53.640;10.578;2023-06-10T05:32:41;2.33;;;1.02;;
59239;SDS011;45010;53.640;10.578;2023-06-10T05:35:41;1.48;;;1.20;;
59239;SDS011;45010;53.640;10.578;2023-06-10T05:38:42;2.10;;;1.05;;
59239;SDS011;45010;53.640;10.578;2023-06-10T05:41:42;2.83;;;1.27;;
59239;SDS011;45010;53.640;10.578;2023-06-10T05:44:42;1.00;;;0.80;;
59239;SDS011;45010;53.640;10.578;2023-06-10T05:47:43;1.92;;;1.00;;
59239;SDS011;45010;53.640;10.578;2023-06-10T05:50:43;2.63;;;1.42;;
59239;SDS011;45010;53.640;10.578;2023-06-10T05:53:48;3.17;;;1.00;;
59239;SDS011;45010;53.640;10.578;2023-06-10T05:56:48;2.10;;;0.90;;
59239;SDS011;45010;53.640;10.578;2023-06-10T05:59:48;1.80;;;0.80;;
59239;SDS011;45010;53.640;10.578;2023-06-10T06:02:49;2.30;;;1.08;;
59239;SDS011;45010;53.640;10.578;2023-06-10T06:05:50;3.00;;;1.17;;
59239;SDS011;45010;53.640;10.578;2023-06-10T06:08:51;7.47;;;1.70;;
59239;SDS011;45010;53.640;10.578;2023-06-10T06:11:51;6.78;;;1.50;;
59239;SDS011;45010;53.640;10.578;2023-06-10T06:14:53;8.38;;;1.65;;
59239;SDS011;45010;53.640;10.578;2023-06-10T06:17:53;6.40;;;1.60;;
59239;SDS011;45010;53.640;10.578;2023-06-10T06:20:54;6.32;;;1.60;;
59239;SDS011;45010;53.640;10.578;2023-06-10T06:23:54;3.85;;;1.33;;
59239;SDS011;45010;53.640;10.578;2023-06-10T06:26:54;3.85;;;1.73;;
59239;SDS011;45010;53.640;10.578;2023-06-10T06:29:55;4.32;;;1.73;;
59239;SDS011;45010;53.640;10.578;2023-06-10T06:32:55;8.45;;;2.10;;
59239;SDS011;45010;53.640;10.578;2023-06-10T06:35:56;6.68;;;1.38;;
59239;SDS011;45010;53.640;10.578;2023-06-10T06:38:57;9.60;;;2.58;;
59239;SDS011;45010;53.640;10.578;2023-06-10T06:41:58;11.88;;;2.20;;
59239;SDS011;45010;53.640;10.578;2023-06-10T06:44:58;9.65;;;1.45;;
59239;SDS011;45010;53.640;10.578;2023-06-10T06:47:59;6.07;;;1.77;;
59239;SDS011;45010;53.640;10.578;2023-06-10T06:50:59;7.40;;;1.90;;
59239;SDS011;45010;53.640;10.578;2023-06-10T06:54:00;8.82;;;2.30;;
59239;SDS011;45010;53.640;10.578;2023-06-10T06:57:00;7.38;;;2.50;;
59239;SDS011;45010;53.640;10.578;2023-06-10T07:00:00;9.20;;;1.90;;
59239;SDS011;45010;53.640;10.578;2023-06-10T07:03:00;7.45;;;1.90;;
59239;SDS011;45010;53.640;10.578;2023-06-10T07:06:01;11.18;;;2.42;;
59239;SDS011;45010;53.640;10.578;2023-06-10T07:09:01;9.60;;;2.50;;
59239;SDS011;45010;53.640;10.578;2023-06-10T07:12:02;6.15;;;2.20;;
59239;SDS011;45010;53.640;10.578;2023-06-10T07:15:02;9.43;;;2.25;;
59239;SDS011;45010;53.640;10.578;2023-06-10T07:18:03;9.13;;;2.78;;
59239;SDS011;45010;53.640;10.578;2023-06-10T07:21:04;7.13;;;2.08;;
59239;SDS011;45010;53.640;10.578;2023-06-10T07:24:04;10.70;;;2.22;;
59239;SDS011;45010;53.640;10.578;2023-06-10T07:27:05;8.48;;;1.92;;
59239;SDS011;45010;53.640;10.578;2023-06-10T07:30:05;7.75;;;2.22;;
59239;SDS011;45010;53.640;10.578;2023-06-10T07:33:09;9.43;;;2.20;;
59239;SDS011;45010;53.640;10.578;2023-06-10T07:36:10;5.13;;;2.00;;
59239;SDS011;45010;53.640;10.578;2023-06-10T07:39:11;11.68;;;2.63;;
59239;SDS011;45010;53.640;10.578;2023-06-10T07:42:11;7.07;;;2.13;;
59239;SDS011;45010;53.640;10.578;2023-06-10T07:45:12;8.27;;;2.20;;
59239;SDS011;45010;53.640;10.578;2023-06-10T07:48:12;7.43;;;2.00;;
59239;SDS011;45010;53.640;10.578;2023-06-10T07:51:12;4.32;;;1.95;;
59239;SDS011;45010;53.640;10.578;2023-06-10T07:54:13;5.85;;;1.95;;
59239;SDS011;45010;53.640;10.578;2023-06-10T07:57:13;7.15;;;2.17;;
59239;SDS011;45010;53.640;10.578;2023-06-10T08:00:14;4.43;;;1.80;;
59239;SDS011;45010;53.640;10.578;2023-06-10T08:03:14;8.90;;;2.50;;
59239;SDS011;45010;53.640;10.578;2023-06-10T08:06:15;7.45;;;2.00;;
59239;SDS011;45010;53.640;10.578;2023-06-10T08:09:17;6.00;;;1.60;;
59239;SDS011;45010;53.640;10.578;2023-06-10T08:12:18;4.95;;;2.20;;
59239;SDS011;45010;53.640;10.578;2023-06-10T08:15:18;4.35;;;1.90;;
59239;SDS011;45010;53.640;10.578;2023-06-10T08:18:19;5.28;;;2.30;;
59239;SDS011;45010;53.640;10.578;2023-06-10T08:21:19;6.72;;;2.25;;
59239;SDS011;45010;53.640;10.578;2023-06-10T08:24:20;6.13;;;2.22;;
59239;SDS011;45010;53.640;10.578;2023-06-10T08:27:20;4.20;;;2.03;;
59239;SDS011;45010;53.640;10.578;2023-06-10T08:30:20;4.55;;;2.03;;
59239;SDS011;45010;53.640;10.578;2023-06-10T08:33:21;6.28;;;2.67;;
59239;SDS011;45010;53.640;10.578;2023-06-10T08:36:21;7.95;;;2.22;;
59239;SDS011;45010;53.640;10.578;2023-06-10T08:39:22;7.47;;;2.67;;
59239;SDS011;45010;53.640;10.578;2023-06-10T08:42:29;5.45;;;2.20;;
59239;SDS011;45010;53.640;10.578;2023-06-10T08:45:53;5.20;;;2.40;;
59239;SDS011;45010;53.640;10.578;2023-06-10T08:48:58;7.45;;;2.75;;
59239;SDS011;45010;53.640;10.578;2023-06-10T08:52:03;7.13;;;2.65;;
59239;SDS011;45010;53.640;10.578;2023-06-10T08:55:06;5.72;;;2.55;;
59239;SDS011;45010;53.640;10.578;2023-06-10T08:58:11;6.07;;;2.10;;
59239;SDS011;45010;53.640;10.578;2023-06-10T09:01:13;6.22;;;2.55;;
59239;SDS011;45010;53.640;10.578;2023-06-10T09:04:14;6.28;;;2.45;;
59239;SDS011;45010;53.640;10.578;2023-06-10T09:07:16;6.32;;;2.05;;
59239;SDS011;45010;53.640;10.578;2023-06-10T09:10:17;8.73;;;2.58;;
59239;SDS011;45010;53.640;10.578;2023-06-10T09:13:17;4.10;;;2.05;;
59239;SDS011;45010;53.640;10.578;2023-06-10T09:16:18;7.28;;;2.45;;
59239;SDS011;45010;53.640;10.578;2023-06-10T09:19:19;6.15;;;2.38;;
59239;SDS011;45010;53.640;10.578;2023-06-10T09:22:24;7.85;;;2.15;;
59239;SDS011;45010;53.640;10.578;2023-06-10T09:25:44;8.30;;;2.00;;
59239;SDS011;45010;53.640;10.578;2023-06-10T09:28:45;9.07;;;2.40;;
59239;SDS011;45010;53.640;10.578;2023-06-10T09:31:48;6.38;;;2.40;;
59239;SDS011;45010;53.640;10.578;2023-06-10T09:34:48;8.35;;;2.42;;
59239;SDS011;45010;53.640;10.578;2023-06-10T09:37:55;6.60;;;2.28;;
59239;SDS011;45010;53.640;10.578;2023-06-10T09:40:57;9.27;;;2.22;;
59239;SDS011;45010;53.640;10.578;2023-06-10T09:43:57;8.77;;;2.25;;
59239;SDS011;45010;53.640;10.578;2023-06-10T09:46:58;10.68;;;2.42;;
59239;SDS011;45010;53.640;10.578;2023-06-10T09:49:59;6.85;;;2.22;;
59239;SDS011;45010;53.640;10.578;2023-06-10T09:53:00;5.55;;;1.77;;
59239;SDS011;45010;53.640;10.578;2023-06-10T09:56:02;6.28;;;2.15;;
59239;SDS011;45010;53.640;10.578;2023-06-10T09:59:03;6.10;;;2.15;;
59239;SDS011;45010;53.640;10.578;2023-06-10T10:02:06;4.57;;;2.35;;
59239;SDS011;45010;53.640;10.578;2023-06-10T10:05:06;6.28;;;2.20;;
59239;SDS011;45010;53.640;10.578;2023-06-10T10:08:07;8.82;;;2.83;;
59239;SDS011;45010;53.640;10.578;2023-06-10T10:11:07;6.57;;;2.30;;
59239;SDS011;45010;53.640;10.578;2023-06-10T10:14:08;7.38;;;2.55;;
59239;SDS011;45010;53.640;10.578;2023-06-10T10:17:09;6.43;;;1.98;;
59239;SDS011;45010;53.640;10.578;2023-06-10T10:20:14;4.70;;;1.80;;
59239;SDS011;45010;53.640;10.578;2023-06-10T10:23:20;7.07;;;2.20;;
59239;SDS011;45010;53.640;10.578;2023-06-10T10:26:26;7.47;;;2.55;;
59239;SDS011;45010;53.640;10.578;2023-06-10T10:29:30;7.30;;;2.30;;
59239;SDS011;45010;53.640;10.578;2023-06-10T10:32:40;4.22;;;1.80;;
59239;SDS011;45010;53.640;10.578;2023-06-10T10:35:46;6.97;;;2.22;;
59239;SDS011;45010;53.640;10.578;2023-06-10T10:38:47;6.28;;;2.28;;
59239;SDS011;45010;53.640;10.578;2023-06-10T10:41:49;6.07;;;2.15;;
59239;SDS011;45010;53.640;10.578;2023-06-10T10:44:50;4.85;;;2.38;;
59239;SDS011;45010;53.640;10.578;2023-06-10T10:47:54;5.88;;;2.40;;
59239;SDS011;45010;53.640;10.578;2023-06-10T10:50:57;5.47;;;1.80;;
59239;SDS011;45010;53.640;10.578;2023-06-10T10:54:13;5.38;;;1.90;;
59239;SDS011;45010;53.640;10.578;2023-06-10T10:57:17;3.20;;;1.52;;
59239;SDS011;45010;53.640;10.578;2023-06-10T11:00:32;4.85;;;2.30;;
59239;SDS011;45010;53.640;10.578;2023-06-10T11:03:34;5.82;;;2.30;;
59239;SDS011;45010;53.640;10.578;2023-06-10T11:06:53;2.97;;;1.83;;
59239;SDS011;45010;53.640;10.578;2023-06-10T11:09:58;8.77;;;2.25;;
59239;SDS011;45010;53.640;10.578;2023-06-10T11:13:12;5.80;;;2.45;;
59239;SDS011;45010;53.640;10.578;2023-06-10T11:16:14;6.57;;;2.47;;
59239;SDS011;45010;53.640;10.578;2023-06-10T11:19:35;5.93;;;1.65;;
59239;SDS011;45010;53.640;10.578;2023-06-10T11:22:57;4.75;;;2.72;;
59239;SDS011;45010;53.640;10.578;2023-06-10T11:29:27;7.78;;;2.22;;
59239;SDS011;45010;53.640;10.578;2023-06-10T11:32:31;5.40;;;2.08;;
59239;SDS011;45010;53.640;10.578;2023-06-10T11:35:33;7.07;;;2.28;;
59239;SDS011;45010;53.640;10.578;2023-06-10T11:38:33;4.97;;;1.90;;
59239;SDS011;45010;53.640;10.578;2023-06-10T11:41:34;3.30;;;2.10;;
59239;SDS011;45010;53.640;10.578;2023-06-10T11:44:35;6.65;;;2.13;;
59239;SDS011;45010;53.640;10.578;2023-06-10T11:47:37;3.38;;;1.80;;
59239;SDS011;45010;53.640;10.578;2023-06-10T11:50:38;5.18;;;2.03;;
59239;SDS011;45010;53.640;10.578;2023-06-10T11:53:38;7.20;;;1.98;;
59239;SDS011;45010;53.640;10.578;2023-06-10T11:56:39;4.15;;;2.15;;
59239;SDS011;45010;53.640;10.578;2023-06-10T11:59:39;2.67;;;1.73;;
59239;SDS011;45010;53.640;10.578;2023-06-10T12:02:40;3.03;;;1.83;;
59239;SDS011;45010;53.640;10.578;2023-06-10T12:05:52;5.55;;;2.10;;
59239;SDS011;45010;53.640;10.578;2023-06-10T12:09:00;4.82;;;1.75;;
59239;SDS011;45010;53.640;10.578;2023-06-10T12:12:01;5.18;;;2.10;;
59239;SDS011;45010;53.640;10.578;2023-06-10T12:15:06;3.45;;;1.73;;
59239;SDS011;45010;53.640;10.578;2023-06-10T12:18:07;5.43;;;2.13;;
59239;SDS011;45010;53.640;10.578;2023-06-10T12:21:17;3.92;;;2.17;;
59239;SDS011;45010;53.640;10.578;2023-06-10T12:24:19;7.35;;;2.05;;
59239;SDS011;45010;53.640;10.578;2023-06-10T12:27:19;8.63;;;2.80;;
59239;SDS011;45010;53.640;10.578;2023-06-10T12:30:20;10.20;;;2.33;;
59239;SDS011;45010;53.640;10.578;2023-06-10T12:33:21;7.07;;;2.40;;
59239;SDS011;45010;53.640;10.578;2023-06-10T12:36:22;5.78;;;2.10;;
59239;SDS011;45010;53.640;10.578;2023-06-10T12:39:22;7.57;;;2.20;;
59239;SDS011;45010;53.640;10.578;2023-06-10T12:42:22;6.40;;;2.20;;
59239;SDS011;45010;53.640;10.578;2023-06-10T12:45:26;6.07;;;2.03;;
59239;SDS011;45010;53.640;10.578;2023-06-10T12:48:31;4.45;;;2.30;;
59239;SDS011;45010;53.640;10.578;2023-06-10T12:51:31;7.95;;;2.28;;
59239;SDS011;45010;53.640;10.578;2023-06-10T12:54:31;5.15;;;2.10;;
59239;SDS011;45010;53.640;10.578;2023-06-10T12:57:32;6.30;;;2.30;;
59239;SDS011;45010;53.640;10.578;2023-06-10T13:00:32;4.75;;;2.10;;
59239;SDS011;45010;53.640;10.578;2023-06-10T13:03:34;4.72;;;2.28;;
59239;SDS011;45010;53.640;10.578;2023-06-10T13:06:35;6.35;;;2.40;;
59239;SDS011;45010;53.640;10.578;2023-06-10T13:09:38;6.80;;;2.83;;
59239;SDS011;45010;53.640;10.578;2023-06-10T13:12:39;4.45;;;2.22;;
59239;SDS011;45010;53.640;10.578;2023-06-10T13:15:40;5.22;;;2.10;;
59239;SDS011;45010;53.640;10.578;2023-06-10T13:18:40;5.00;;;2.50;;
59239;SDS011;45010;53.640;10.578;2023-06-10T13:21:40;6.25;;;2.05;;
59239;SDS011;45010;53.640;10.578;2023-06-10T13:24:41;5.60;;;2.30;;
59239;SDS011;45010;53.640;10.578;2023-06-10T13:27:43;5.60;;;2.03;;
59239;SDS011;45010;53.640;10.578;2023-06-10T13:30:44;3.17;;;1.83;;
59239;SDS011;45010;53.640;10.578;2023-06-10T13:33:44;3.47;;;2.00;;
59239;SDS011;45010;53.640;10.578;2023-06-10T13:36:44;8.35;;;2.45;;
59239;SDS011;45010;53.640;10.578;2023-06-10T13:39:45;7.63;;;2.33;;
59239;SDS011;45010;53.640;10.578;2023-06-10T13:42:50;4.68;;;2.10;;
59239;SDS011;45010;53.640;10.578;2023-06-10T13:45:52;6.57;;;2.17;;
59239;SDS011;45010;53.640;10.578;2023-06-10T13:48:52;8.65;;;1.98;;
59239;SDS011;45010;53.640;10.578;2023-06-10T13:51:53;5.57;;;2.13;;
59239;SDS011;45010;53.640;10.578;2023-06-10T13:54:53;4.70;;;2.35;;
59239;SDS011;45010;53.640;10.578;2023-06-10T13:57:53;10.05;;;2.78;;
59239;SDS011;45010;53.640;10.578;2023-06-10T14:00:54;7.85;;;2.47;;
59239;SDS011;45010;53.640;10.578;2023-06-10T14:03:54;7.20;;;2.40;;
59239;SDS011;45010;53.640;10.578;2023-06-10T14:06:55;4.15;;;2.38;;
59239;SDS011;45010;53.640;10.578;2023-06-10T14:09:55;5.85;;;2.03;;
59239;SDS011;45010;53.640;10.578;2023-06-10T14:12:56;8.23;;;2.40;;
59239;SDS011;45010;53.640;10.578;2023-06-10T14:15:56;5.93;;;2.03;;
59239;SDS011;45010;53.640;10.578;2023-06-10T14:18:57;6.60;;;2.42;;
59239;SDS011;45010;53.640;10.578;2023-06-10T14:21:58;8.57;;;2.50;;
59239;SDS011;45010;53.640;10.578;2023-06-10T14:24:58;5.05;;;2.17;;
59239;SDS011;45010;53.640;10.578;2023-06-10T14:27:58;5.15;;;2.53;;
59239;SDS011;45010;53.640;10.578;2023-06-10T14:30:59;6.15;;;2.25;;
59239;SDS011;45010;53.640;10.578;2023-06-10T14:33:59;6.15;;;2.08;;
59239;SDS011;45010;53.640;10.578;2023-06-10T14:37:00;3.83;;;1.95;;
59239;SDS011;45010;53.640;10.578;2023-06-10T14:40:00;4.03;;;2.30;;
59239;SDS011;45010;53.640;10.578;2023-06-10T14:43:01;5.47;;;2.33;;
59239;SDS011;45010;53.640;10.578;2023-06-10T14:46:04;3.90;;;2.20;;
59239;SDS011;45010;53.640;10.578;2023-06-10T14:49:04;5.32;;;2.60;;
59239;SDS011;45010;53.640;10.578;2023-06-10T14:52:04;5.40;;;2.38;;
59239;SDS011;45010;53.640;10.578;2023-06-10T14:55:05;6.45;;;2.30;;
59239;SDS011;45010;53.640;10.578;2023-06-10T14:58:05;5.80;;;2.17;;
59239;SDS011;45010;53.640;10.578;2023-06-10T15:01:06;5.20;;;2.28;;
59239;SDS011;45010;53.640;10.578;2023-06-10T15:04:06;5.68;;;1.98;;
59239;SDS011;45010;53.640;10.578;2023-06-10T15:07:06;6.95;;;2.50;;
59239;SDS011;45010;53.640;10.578;2023-06-10T15:10:07;5.97;;;2.47;;
59239;SDS011;45010;53.640;10.578;2023-06-10T15:13:08;7.68;;;2.20;;
59239;SDS011;45010;53.640;10.578;2023-06-10T15:16:08;5.65;;;2.58;;
59239;SDS011;45010;53.640;10.578;2023-06-10T15:19:09;5.82;;;2.28;;
59239;SDS011;45010;53.640;10.578;2023-06-10T15:22:09;5.38;;;2.33;;
59239;SDS011;45010;53.640;10.578;2023-06-10T15:25:11;5.47;;;2.30;;
59239;SDS011;45010;53.640;10.578;2023-06-10T15:28:12;5.70;;;2.00;;
59239;SDS011;45010;53.640;10.578;2023-06-10T15:31:12;4.43;;;1.92;;
59239;SDS011;45010;53.640;10.578;2023-06-10T15:34:13;4.00;;;2.17;;
59239;SDS011;45010;53.640;10.578;2023-06-10T15:37:14;4.28;;;1.70;;
59239;SDS011;45010;53.640;10.578;2023-06-10T15:40:15;7.55;;;2.67;;
59239;SDS011;45010;53.640;10.578;2023-06-10T15:43:15;3.00;;;1.75;;
59239;SDS011;45010;53.640;10.578;2023-06-10T15:46:15;5.05;;;2.20;;
59239;SDS011;45010;53.640;10.578;2023-06-10T15:49:16;3.95;;;1.98;;
59239;SDS011;45010;53.640;10.578;2023-06-10T15:52:16;7.90;;;2.20;;
59239;SDS011;45010;53.640;10.578;2023-06-10T15:55:16;6.90;;;2.50;;
59239;SDS011;45010;53.640;10.578;2023-06-10T15:58:17;6.18;;;2.00;;
59239;SDS011;45010;53.640;10.578;2023-06-10T16:01:17;3.95;;;1.90;;
59239;SDS011;45010;53.640;10.578;2023-06-10T16:04:17;6.53;;;2.15;;
59239;SDS011;45010;53.640;10.578;2023-06-10T16:07:18;4.93;;;2.08;;
59239;SDS011;45010;53.640;10.578;2023-06-10T16:10:18;5.13;;;1.88;;
59239;SDS011;45010;53.640;10.578;2023-06-10T16:13:19;9.48;;;2.20;;
59239;SDS011;45010;53.640;10.578;2023-06-10T16:16:20;7.68;;;2.70;;
59239;SDS011;45010;53.640;10.578;2023-06-10T16:19:20;8.10;;;2.60;;
59239;SDS011;45010;53.640;10.578;2023-06-10T16:22:20;9.60;;;2.28;;
59239;SDS011;45010;53.640;10.578;2023-06-10T16:25:21;5.57;;;2.10;;
59239;SDS011;45010;53.640;10.578;2023-06-10T16:28:21;7.60;;;2.50;;
59239;SDS011;45010;53.640;10.578;2023-06-10T16:31:21;8.50;;;2.72;;
59239;SDS011;45010;53.640;10.578;2023-06-10T16:34:22;6.90;;;2.22;;
59239;SDS011;45010;53.640;10.578;2023-06-10T16:37:22;8.55;;;2.95;;
59239;SDS011;45010;53.640;10.578;2023-06-10T16:40:22;4.95;;;2.30;;
59239;SDS011;45010;53.640;10.578;2023-06-10T16:43:23;9.40;;;2.35;;
59239;SDS011;45010;53.640;10.578;2023-06-10T16:46:26;3.75;;;2.33;;
59239;SDS011;45010;53.640;10.578;2023-06-10T16:49:28;6.97;;;2.35;;
59239;SDS011;45010;53.640;10.578;2023-06-10T16:52:29;4.43;;;1.98;;
59239;SDS011;45010;53.640;10.578;2023-06-10T16:55:29;7.88;;;2.63;;
59239;SDS011;45010;53.640;10.578;2023-06-10T16:58:30;6.00;;;2.97;;
59239;SDS011;45010;53.640;10.578;2023-06-10T17:01:30;5.93;;;2.30;;
59239;SDS011;45010;53.640;10.578;2023-06-10T17:04:30;7.72;;;2.38;;
59239;SDS011;45010;53.640;10.578;2023-06-10T17:07:31;5.97;;;2.55;;
59239;SDS011;45010;53.640;10.578;2023-06-10T17:10:31;7.60;;;2.47;;
59239;SDS011;45010;53.640;10.578;2023-06-10T17:13:31;7.60;;;2.80;;
59239;SDS011;45010;53.640;10.578;2023-06-10T17:16:32;7.65;;;2.72;;
59239;SDS011;45010;53.640;10.578;2023-06-10T17:19:32;6.72;;;2.42;;
59239;SDS011;45010;53.640;10.578;2023-06-10T17:22:32;4.90;;;2.25;;
59239;SDS011;45010;53.640;10.578;2023-06-10T17:25:33;12.23;;;3.20;;
59239;SDS011;45010;53.640;10.578;2023-06-10T17:28:35;5.55;;;2.10;;
59239;SDS011;45010;53.640;10.578;2023-06-10T17:31:35;6.65;;;2.47;;
59239;SDS011;45010;53.640;10.578;2023-06-10T17:34:35;6.45;;;2.33;;
59239;SDS011;45010;53.640;10.578;2023-06-10T17:37:36;6.35;;;2.58;;
59239;SDS011;45010;53.640;10.578;2023-06-10T17:40:36;4.28;;;2.33;;
59239;SDS011;45010;53.640;10.578;2023-06-10T17:43:37;5.28;;;2.72;;
59239;SDS011;45010;53.640;10.578;2023-06-10T17:46:37;5.07;;;2.30;;
59239;SDS011;45010;53.640;10.578;2023-06-10T17:49:37;7.25;;;2.60;;
59239;SDS011;45010;53.640;10.578;2023-06-10T17:52:38;5.88;;;2.53;;
59239;SDS011;45010;53.640;10.578;2023-06-10T17:55:39;4.50;;;2.40;;
59239;SDS011;45010;53.640;10.578;2023-06-10T17:58:39;4.63;;;2.65;;
59239;SDS011;45010;53.640;10.578;2023-06-10T18:01:41;6.55;;;2.53;;